Report METAR

 

LIBV - Gioia Del Colle, Italy
Distanza dalla stazione: SSE 15km
Dati ricevuti: 15/07/2020 07:55
Sereno
Sereno
 Vento da S
Vento: S 17 km/h
Temperatura: 21°C
P.to Rugiada: 10°C
Umidità: 50%
Barometro: 1015 hPa
Riassunto: Sereno
Visibilità: superiore a 10 km
2020/07/15 05:55 LIBV 150555Z 18009KT CAVOK 21/10 Q1015 RMK SKC VIS MIN 9999 WIND THR32 18008KT WIND THR14 18008KT BLU
LIBD - Bari/Palese Macc, Italy
Distanza dalla stazione: NNO 26km
Dati ricevuti: 15/07/2020 08:50
Sereno
Sereno
 Vento da E
Vento: E 9 km/h
Temperatura: 25°C
P.to Rugiada: 16°C
Umidità: 57%
Barometro: 1014 hPa
Riassunto: Sereno
Visibilità: superiore a 10 km
2020/07/15 06:50 LIBD 150650Z 10005KT 060V130 CAVOK 25/16 Q1014
 
LIBH - Marina Di Ginosa, Italy
Distanza dalla stazione: S 53km
Dati ricevuti: 15/07/2020 08:55
Sereno
Sereno
 Vento da ESE
Vento: ESE 6 km/h
Temperatura: 26°C
P.to Rugiada: 21°C
Umidità: 74%
Barometro: 1013 hPa
Riassunto: Sereno
Visibilità: superiore a 10 km
2020/07/15 06:55 LIBH 150655Z 11003KT 040V180 CAVOK 26/21 Q1013 RMK SKC QUK 1 QUL 0 VIS MAR 20 KM VIS MIN 9999
LIBG - Grottaglie(Civ/A, Italy
Distanza dalla stazione: SE 61km
Dati ricevuti: 15/07/2020 08:50
Sereno
Sereno
 Vento da SE
Vento: SE 11 km/h
Temperatura: 26°C
P.to Rugiada: 16°C
Umidità: 54%
Barometro: 1014 hPa
Riassunto: Sereno
Visibilità: superiore a 10 km
2020/07/15 06:50 LIBG 150650Z 14006KT CAVOK 26/16 Q1014
 
LIBR - Brindisi/Casale, Italy
Distanza dalla stazione: ESE 96km
Dati ricevuti: 15/07/2020 08:50
Poche nubi
Poche nubi
 Vento da E
Vento: E 11 km/h
Temperatura: 25°C
P.to Rugiada: 17°C
Umidità: 61%
Barometro: 1014 hPa
Nuvole: Poche nubi
Visibilità: 10 km
Dettagli nuvole: Poche nubi 61 m
2020/07/15 06:50 LIBR 150650Z AUTO 10006KT 070V140 9999 R31/0800D FEW002/// 25/17 Q1014
LIBA - Amendola (it-Afb, Italy
Distanza dalla stazione: NO 118km
Dati ricevuti: 15/07/2020 08:55
Sereno
Sereno
 Vento da E
Vento: E 4 km/h
Temperatura: 23°C
P.to Rugiada: 14°C
Umidità: 57%
Barometro: 1014 hPa
Riassunto: Sereno
Visibilità: superiore a 10 km
2020/07/15 06:55 LIBA 150655Z 10002KT CAVOK 23/14 Q1014 RMK FEW FEW200 VIS MIN 9999 WIND THR11 VRB01KT WIND THR29 /////KT BLU
 
LIBF - Foggia/Gino Lisa, Italy
Distanza dalla stazione: ONO 126km
Dati ricevuti: 15/07/2020 08:50
Sereno
Sereno
 Vento da Variabile
Vento: Variabile 4 km/h
Temperatura: 23°C
P.to Rugiada: 12°C
Umidità: 50%
Barometro: 1014 hPa
Riassunto: Sereno
Visibilità: superiore a 10 km
2020/07/15 06:50 LIBF 150650Z VRB02KT CAVOK 23/12 Q1014
LIBN - Lecce (it-Afb), Italy
Distanza dalla stazione: SE 132km
Dati ricevuti: 15/07/2020 08:55
Sereno
Sereno
 Vento da SSE
Vento: SSE 6 km/h
Temperatura: 26°C
P.to Rugiada: 19°C
Umidità: 65%
Barometro: 1014 hPa
Riassunto: Sereno
Visibilità: superiore a 10 km
2020/07/15 06:55 LIBN 150655Z 15003KT CAVOK 26/19 Q1014 RMK FEW FEW200 VIS MIN 9999 WIND THR14 22002KT WIND THR32 18003KT BLU